Etusivu
METAR-TAF:

METAR-TAF

Lentoasemat :

Miller Field

Valentine, Nebraska, Yhdysvallat

Leveyspiiri: 42-51-31N, Pituuspiiri: 100-33-05W, korkeus merenpinnasta: 789 m

Tämänhetkinen sää

Tämä raportti tehtiin 23 minuuttia sitten, kello 22.52 UTC
Tuuli 9 kn koillisesta
Lämpötila 36°C
Kosteus 25%
Ilmanpaine 1016 hPa
Näkyvyys: 16.1 km
selkeää

METAR: KVTN 132252Z AUTO 05009KT 10SM CLR 36/13 A2999 RMK AO2 SLP125 T03560128

Aika: 18:15 (23:15 UTC)

Sääennuste

Tämä raportti tehtiin 5 tuntia ja 46 minuuttia sitten, kello 17.29 UTC
Ennuste voimassa 13. päivästä klo 17 UTC - 14. päivään klo 18 UTC
Tuuli 7 kn idästä
Näkyvyys: 10 km
Hajanaisia pilviä 14000 ft:n korkeudessa
From 14. päivästä klo 0400 UTC
Tuuli 5 kn etelästä/lounaasta
Näkyvyys: 10 km
selkeää
From 14. päivästä klo 1500 UTC
Tuuli 7 kn idästä
Näkyvyys: 10 km
Muutamia pilviä 25000 ft:n korkeudessa

TAF: KVTN 131729Z 1317/1418 09007KT P6SM SCT140 FM140400 20005KT P6SM SKC FM141500 09007KT P6SM FEW250

Säähavainnot ja -ennusteet yli 4000 lentoasemalta (METAR- ja TAF-raportit).

Käytössä olevat sääasemat on merkitty karttaan keltaisilla ja punaisilla pisteillä.

Aseta hiiri pisteen päälle nähdäksesi sääaseman nimen.

Klikkaa sitten nähdäksesi säähavainnot ja -ennusteet.

Kartan vaihtaminen: klikkaa mustalla rastilla varustettuja vihreitä pisteitä, niin voit zoomata sisään; viivalla varustettua vihreää pistettä, niin voit zoomata ulos tai vihreitä nuolia, niin pääset viereisille kartoille.


METAR-TAF: